createdAt,value
2022-08-09T00:01:54.780Z,15.43
2022-08-09T00:07:13.565Z,15.39
2022-08-09T00:12:43.434Z,15.38
2022-08-09T00:18:10.433Z,15.33
2022-08-09T00:23:55.257Z,15.37
2022-08-09T00:30:10.021Z,15.41
2022-08-09T00:35:06.505Z,15.48
2022-08-09T00:40:31.297Z,15.56
2022-08-09T00:46:10.039Z,15.53
2022-08-09T00:52:19.056Z,15.53
2022-08-09T00:58:05.841Z,15.57
2022-08-09T01:04:27.531Z,15.49
2022-08-09T01:10:09.606Z,15.40
2022-08-09T01:15:19.207Z,15.47
2022-08-09T01:21:20.732Z,15.56
2022-08-09T01:41:06.213Z,15.56
2022-08-09T01:46:27.462Z,15.46
2022-08-09T01:51:53.832Z,15.44
2022-08-09T01:57:14.792Z,15.37
2022-08-09T02:02:40.994Z,15.29
2022-08-09T02:08:40.609Z,15.28
2022-08-09T02:14:39.992Z,15.21
2022-08-09T02:20:06.477Z,15.20
2022-08-09T02:25:52.688Z,15.21
2022-08-09T02:31:17.087Z,15.19
2022-08-09T02:37:04.842Z,15.22
2022-08-09T02:42:24.792Z,15.28
2022-08-09T02:47:59.761Z,15.23
2022-08-09T02:53:39.848Z,15.11
2022-08-09T02:59:03.732Z,15.01
2022-08-09T03:04:28.940Z,15.02
2022-08-09T03:09:54.418Z,15.02
2022-08-09T03:16:04.562Z,15.04
2022-08-09T03:21:11.702Z,15.01
2022-08-09T03:26:20.843Z,14.98
2022-08-09T03:31:59.642Z,14.98
2022-08-09T03:37:54.540Z,14.99
2022-08-09T03:43:09.349Z,15.08
2022-08-09T03:48:30.696Z,15.17
2022-08-09T03:53:39.844Z,15.23
2022-08-09T03:58:51.259Z,15.20
2022-08-09T04:04:03.902Z,15.15
2022-08-09T04:09:47.865Z,15.15
2022-08-09T04:15:01.422Z,15.22
2022-08-09T04:20:16.900Z,15.28
2022-08-09T04:25:41.796Z,15.36
2022-08-09T04:30:54.315Z,15.44
2022-08-09T04:36:43.601Z,15.55
2022-08-09T04:41:53.639Z,15.60
2022-08-09T04:48:04.221Z,15.70
2022-08-09T04:53:40.085Z,15.85
2022-08-09T04:58:48.406Z,15.96
2022-08-09T05:03:56.796Z,16.12
2022-08-09T05:09:02.404Z,16.35
2022-08-09T05:14:08.117Z,16.53
2022-08-09T05:19:15.346Z,16.61
2022-08-09T05:24:24.813Z,16.64
2022-08-09T05:29:37.196Z,16.70
2022-08-09T05:34:40.610Z,16.69
2022-08-09T05:39:51.536Z,16.71
2022-08-09T05:44:57.904Z,16.72
2022-08-09T05:50:25.805Z,16.64
2022-08-09T05:55:31.188Z,16.57
2022-08-09T06:00:37.911Z,16.62
2022-08-09T06:05:54.834Z,16.68
2022-08-09T06:11:16.568Z,16.82
2022-08-09T06:16:22.652Z,16.88
2022-08-09T06:21:26.020Z,16.85
2022-08-09T06:26:34.961Z,16.90
2022-08-09T06:32:09.261Z,17.06
2022-08-09T06:37:03.432Z,17.34
2022-08-09T06:42:12.497Z,17.43
2022-08-09T06:47:16.288Z,17.56
2022-08-09T06:52:33.903Z,17.61
2022-08-09T06:58:01.805Z,17.75
2022-08-09T07:03:06.310Z,17.89
2022-08-09T07:08:18.494Z,18.04
2022-08-09T07:13:29.704Z,18.18
2022-08-09T07:18:33.637Z,18.29
2022-08-09T07:23:56.752Z,18.37
2022-08-09T07:29:11.842Z,18.45
2022-08-09T07:34:20.309Z,18.49
2022-08-09T07:39:40.096Z,18.57
2022-08-09T07:44:54.617Z,18.80
2022-08-09T07:50:08.201Z,18.89
2022-08-09T07:55:12.855Z,19.07
2022-08-09T08:00:35.745Z,19.26
2022-08-09T08:05:57.502Z,19.26
2022-08-09T08:12:07.829Z,19.69
2022-08-09T08:16:32.566Z,20.11
2022-08-09T08:21:39.524Z,20.38
2022-08-09T08:26:56.132Z,20.60
2022-08-09T08:32:05.629Z,20.82
2022-08-09T08:37:15.583Z,20.98
2022-08-09T08:42:31.796Z,20.96
2022-08-09T08:47:38.568Z,20.93
2022-08-09T08:52:57.836Z,21.60
2022-08-09T08:58:03.258Z,22.46
2022-08-09T09:03:16.383Z,23.11
2022-08-09T09:08:40.165Z,23.64
2022-08-09T09:13:55.778Z,23.59
2022-08-09T09:19:40.114Z,23.31
2022-08-09T09:24:34.872Z,23.53
2022-08-09T09:30:13.894Z,23.66
2022-08-09T09:35:15.824Z,23.71
2022-08-09T09:40:19.207Z,23.88
2022-08-09T09:45:29.472Z,24.20
2022-08-09T09:50:51.416Z,24.15
2022-08-09T09:56:05.481Z,24.02
2022-08-09T10:01:31.278Z,23.69
2022-08-09T10:06:52.069Z,23.23
2022-08-09T10:12:14.288Z,23.34
2022-08-09T10:17:50.568Z,23.35
2022-08-09T10:22:51.407Z,23.71
2022-08-09T10:27:58.046Z,24.23
2022-08-09T10:33:02.026Z,23.66
2022-08-09T10:38:43.257Z,22.54
2022-08-09T10:43:50.578Z,22.06
2022-08-09T10:49:19.023Z,21.70
2022-08-09T10:54:25.650Z,21.92
2022-08-09T10:59:43.264Z,22.15
2022-08-09T11:05:25.200Z,22.51
2022-08-09T11:10:53.480Z,23.24
2022-08-09T11:16:43.395Z,23.90
2022-08-09T11:22:16.872Z,25.26
2022-08-09T11:28:04.705Z,25.74
2022-08-09T11:33:19.912Z,25.74
2022-08-09T11:38:34.124Z,26.12
2022-08-09T11:43:49.243Z,24.58
2022-08-09T11:48:59.624Z,24.82
2022-08-09T11:54:21.421Z,25.15
2022-08-09T11:59:34.111Z,25.69
2022-08-09T12:04:38.173Z,25.94
2022-08-09T12:09:50.359Z,25.98
2022-08-09T12:15:07.776Z,25.69
2022-08-09T12:20:21.906Z,25.96
2022-08-09T12:25:37.363Z,25.44
2022-08-09T12:30:44.817Z,24.18
2022-08-09T12:35:48.191Z,23.58
2022-08-09T12:41:00.199Z,22.90
2022-08-09T12:46:05.419Z,22.33
2022-08-09T12:51:12.364Z,22.10
2022-08-09T12:56:54.700Z,22.05
2022-08-09T13:02:09.603Z,22.02
2022-08-09T13:07:19.540Z,22.12
2022-08-09T13:12:23.519Z,22.22
2022-08-09T13:18:02.925Z,22.29
2022-08-09T13:23:06.125Z,22.43
2022-08-09T13:28:33.735Z,22.44
2022-08-09T13:33:53.758Z,22.42
2022-08-09T13:39:05.545Z,22.40
2022-08-09T13:44:23.597Z,22.38
2022-08-09T13:49:27.490Z,22.46
2022-08-09T13:54:49.068Z,22.56
2022-08-09T14:00:13.364Z,22.72
2022-08-09T14:05:56.851Z,22.71
2022-08-09T14:10:49.209Z,23.00
2022-08-09T14:16:08.818Z,23.18
2022-08-09T14:21:20.128Z,23.34
2022-08-09T14:26:31.878Z,23.49
2022-08-09T14:31:49.761Z,23.55
2022-08-09T14:36:58.151Z,23.58
2022-08-09T14:42:02.538Z,23.70
2022-08-09T14:47:30.266Z,23.51
2022-08-09T14:52:35.576Z,23.65
2022-08-09T14:57:43.429Z,24.01
2022-08-09T15:02:47.431Z,23.91
2022-08-09T15:07:54.735Z,24.35
2022-08-09T15:13:03.095Z,24.16
2022-08-09T15:18:14.170Z,24.15
2022-08-09T15:24:03.297Z,24.49
2022-08-09T15:28:54.699Z,23.94
2022-08-09T15:34:17.767Z,23.43
2022-08-09T15:39:21.805Z,23.07
2022-08-09T15:44:25.859Z,22.97
2022-08-09T15:49:35.900Z,22.97
2022-08-09T15:54:46.297Z,22.96
2022-08-09T15:59:53.680Z,22.87
2022-08-09T16:04:58.316Z,22.47
2022-08-09T16:10:11.049Z,22.44
2022-08-09T16:16:04.696Z,22.47
2022-08-09T16:20:46.592Z,22.57
2022-08-09T16:25:54.592Z,22.31
2022-08-09T16:31:16.070Z,22.25
2022-08-09T16:36:20.124Z,22.33
2022-08-09T16:42:02.093Z,22.32
2022-08-09T16:46:55.114Z,22.43
2022-08-09T16:51:59.289Z,22.46
2022-08-09T16:57:02.418Z,22.31
2022-08-09T17:02:18.076Z,22.06
2022-08-09T17:08:44.907Z,21.74
2022-08-09T17:12:53.498Z,21.36
2022-08-09T17:18:00.574Z,21.15
2022-08-09T17:23:10.393Z,21.59
2022-08-09T17:28:16.997Z,22.29
2022-08-09T17:33:22.584Z,22.89
2022-08-09T17:38:34.271Z,23.07
2022-08-09T17:43:46.965Z,23.01
2022-08-09T17:48:54.353Z,22.97
2022-08-09T17:54:17.498Z,22.88
2022-08-09T17:59:38.178Z,22.55
2022-08-09T18:04:43.098Z,22.28
2022-08-09T18:10:05.122Z,22.02
2022-08-09T18:15:12.000Z,21.66
2022-08-09T18:20:57.360Z,21.00
2022-08-09T18:25:51.219Z,20.19
2022-08-09T18:30:58.754Z,19.55
2022-08-09T18:36:02.031Z,19.13
2022-08-09T18:41:06.705Z,18.74
2022-08-09T18:46:50.150Z,18.45
2022-08-09T18:51:38.508Z,18.19
2022-08-09T18:56:56.101Z,17.99
2022-08-09T19:02:09.075Z,17.84
2022-08-09T19:07:13.313Z,17.75
2022-08-09T19:12:21.168Z,17.66
2022-08-09T19:17:24.939Z,17.56
2022-08-09T19:22:34.819Z,17.41
2022-08-09T19:27:39.548Z,17.30
2022-08-09T19:32:43.275Z,17.26
2022-08-09T19:37:54.737Z,17.20
2022-08-09T19:43:00.044Z,17.07
2022-08-09T19:48:05.025Z,16.81
2022-08-09T19:53:08.352Z,16.50
2022-08-09T19:58:16.179Z,16.21
2022-08-09T20:04:18.057Z,15.96
2022-08-09T20:08:43.047Z,15.77
2022-08-09T20:13:53.869Z,15.70
2022-08-09T20:19:42.323Z,15.63
2022-08-09T20:24:31.754Z,15.58
2022-08-09T20:29:39.275Z,15.50
2022-08-09T20:34:44.345Z,15.43
2022-08-09T20:40:15.847Z,15.46
2022-08-09T20:50:47.474Z,15.51
2022-08-09T20:56:01.919Z,15.48
2022-08-09T21:01:33.102Z,15.48
2022-08-09T21:06:32.086Z,15.50
2022-08-09T21:17:02.154Z,15.44
2022-08-09T21:22:38.588Z,15.26
2022-08-09T21:28:01.255Z,15.20
2022-08-09T21:33:05.952Z,15.17
2022-08-09T21:38:11.046Z,14.99
2022-08-09T21:43:21.627Z,14.85
2022-08-09T21:48:48.382Z,14.68
2022-08-09T21:54:16.635Z,14.51
2022-08-09T21:59:20.653Z,14.27
2022-08-09T22:04:55.806Z,14.16
2022-08-09T22:09:50.839Z,14.25
2022-08-09T22:14:55.326Z,14.23
2022-08-09T22:20:01.403Z,14.08
2022-08-09T22:26:05.464Z,13.94
2022-08-09T22:30:33.133Z,13.92
2022-08-09T22:36:03.141Z,13.95
2022-08-09T22:41:00.591Z,13.97
2022-08-09T22:48:16.425Z,13.90
2022-08-09T22:51:27.435Z,13.73
2022-08-09T22:56:33.766Z,13.58
2022-08-09T23:01:39.196Z,13.45
2022-08-09T23:07:00.652Z,13.42
2022-08-09T23:12:06.589Z,13.44
2022-08-09T23:17:11.201Z,13.47
2022-08-09T23:22:14.325Z,13.50
2022-08-09T23:27:17.743Z,13.33
2022-08-09T23:32:20.859Z,13.04
2022-08-09T23:37:25.597Z,13.06
2022-08-09T23:42:28.893Z,13.09
2022-08-09T23:47:31.962Z,13.13
2022-08-09T23:52:36.129Z,13.04
2022-08-09T23:57:43.439Z,12.99
